Time;durP1;ratioP1;P1;durP2;ratioP2;P2;SDS_P1;SDS_P2;PMS_P1;PMS_P2;Temp;Humidity;BMP_temperature;BMP_pressure;BME280_temperature;BME280_humidity;BME280_pressure;Samples;Min_cycle;Max_cycle;Signal;HPM_P1;HPM_P2
2023/03/27 00:02:10;;;;;;;10.10;4.20;;;;;;;9.76;56.64;94175.56;5017573;28;20671;-72
2023/03/27 00:04:35;;;;;;;9.97;4.10;;;;;;;9.74;54.23;94151.47;5036425;28;20222;-72
2023/03/27 00:07:02;;;;;;;9.00;4.07;;;;;;;9.58;53.55;94133.72;5035675;28;20230;-71
2023/03/27 00:09:27;;;;;;;9.17;4.00;;;;;;;9.85;53.86;94148.97;5024854;28;20551;-72
2023/03/27 00:11:54;;;;;;;7.90;4.23;;;;;;;10.10;54.58;94162.03;5032270;28;20241;-71
2023/03/27 00:14:20;;;;;;;9.37;4.90;;;;;;;10.12;53.39;94150.38;5016021;28;20855;-72
2023/03/27 00:16:46;;;;;;;9.23;4.80;;;;;;;9.84;53.25;94146.56;5034091;28;20226;-72
2023/03/27 00:19:11;;;;;;;11.17;4.70;;;;;;;9.90;54.91;94162.19;5020916;28;20233;-72
2023/03/27 00:21:37;;;;;;;9.70;4.70;;;;;;;9.90;54.61;94159.59;5018757;28;20227;-71
2023/03/27 00:24:02;;;;;;;8.83;4.80;;;;;;;10.08;53.94;94166.66;5019083;28;20617;-71
2023/03/27 00:26:29;;;;;;;11.60;5.13;;;;;;;9.62;55.91;94148.75;5031478;28;20234;-71
2023/03/27 00:28:54;;;;;;;11.73;5.00;;;;;;;9.27;56.56;94148.38;5026213;28;20951;-70
2023/03/27 00:31:20;;;;;;;8.20;4.37;;;;;;;9.55;57.28;94152.41;5012841;28;20233;-72
2023/03/27 00:33:46;;;;;;;10.60;4.90;;;;;;;9.57;55.85;94132.09;5034842;28;20356;-71
2023/03/27 00:36:11;;;;;;;10.27;4.63;;;;;;;9.09;59.57;94110.94;5024450;28;20241;-71
2023/03/27 00:38:38;;;;;;;10.10;4.80;;;;;;;9.30;60.99;94132.28;5008265;28;20276;-71
2023/03/27 00:41:04;;;;;;;8.87;4.50;;;;;;;9.42;57.76;94138.44;5018660;28;20237;-70
2023/03/27 00:43:34;;;;;;;12.00;5.30;;;;;;;9.54;56.19;94128.09;5030663;28;20708;-71
2023/03/27 00:46:14;;;;;;;8.27;4.70;;;;;;;9.63;55.36;94113.75;5015159;28;20229;-70
2023/03/27 00:48:39;;;;;;;9.00;4.53;;;;;;;9.78;55.41;94134.34;5032193;28;20255;-71
2023/03/27 00:51:05;;;;;;;8.93;4.10;;;;;;;9.70;55.80;94100.63;5002492;28;20234;-70
2023/03/27 00:53:31;;;;;;;9.60;4.20;;;;;;;9.39;57.90;94101.50;5003587;28;20233;-69
2023/03/27 00:56:00;;;;;;;5.77;3.80;;;;;;;9.70;57.44;94124.16;5019047;28;20335;-71
2023/03/27 00:58:31;;;;;;;7.17;3.97;;;;;;;9.82;55.80;94112.81;5018747;28;20237;-71
2023/03/27 01:00:56;;;;;;;9.77;4.10;;;;;;;9.71;54.90;94104.88;5017678;28;20325;-71
2023/03/27 01:03:24;;;;;;;8.20;4.20;;;;;;;9.70;55.24;94117.13;5019997;28;20234;-71
2023/03/27 01:05:51;;;;;;;9.33;4.50;;;;;;;9.15;58.09;94083.97;5006010;28;20320;-71
2023/03/27 01:08:16;;;;;;;8.93;4.00;;;;;;;9.32;58.12;94109.38;5013354;28;20233;-71
2023/03/27 01:11:06;;;;;;;8.23;4.53;;;;;;;9.22;58.43;94079.50;5006009;28;20245;-71
2023/03/27 01:13:41;;;;;;;8.30;4.43;;;;;;;8.75;64.53;94052.94;5016391;28;20338;-71
2023/03/27 01:16:16;;;;;;;10.43;4.37;;;;;;;9.43;59.88;94087.78;5033426;28;20733;-71
2023/03/27 01:18:52;;;;;;;9.33;4.10;;;;;;;9.42;57.32;94065.31;5024884;28;20245;-70
2023/03/27 01:21:17;;;;;;;9.80;4.40;;;;;;;9.59;57.42;94075.22;5030926;28;20237;-71
2023/03/27 01:23:49;;;;;;;9.20;4.30;;;;;;;9.76;56.31;94078.91;5033611;28;20241;-71
2023/03/27 01:26:36;;;;;;;9.97;4.47;;;;;;;9.60;58.05;94066.38;5032993;28;20237;-71
2023/03/27 01:29:16;;;;;;;10.30;4.43;;;;;;;9.67;56.24;94057.47;5033176;28;20640;-71
2023/03/27 01:32:01;;;;;;;9.97;4.60;;;;;;;9.40;58.76;94061.31;5033431;28;20226;-71
2023/03/27 01:34:53;;;;;;;9.97;4.40;;;;;;;9.78;58.37;94072.44;5034869;28;20727;-69
2023/03/27 01:37:40;;;;;;;6.83;4.03;;;;;;;9.75;56.53;94074.66;5025714;28;20597;-71
2023/03/27 01:40:13;;;;;;;6.53;3.73;;;;;;;9.90;57.18;94072.53;5032642;28;20721;-71
2023/03/27 01:43:03;;;;;;;8.60;4.03;;;;;;;9.68;56.27;94051.22;5030706;28;20248;-71
2023/03/27 01:45:49;;;;;;;7.63;4.20;;;;;;;9.61;58.02;94047.88;5012590;28;20869;-71
2023/03/27 01:48:39;;;;;;;8.57;4.00;;;;;;;9.84;58.86;94062.94;5028852;28;20233;-71
2023/03/27 01:51:31;;;;;;;10.87;4.20;;;;;;;9.56;57.96;94026.00;4999016;28;20238;-71
2023/03/27 01:53:59;;;;;;;8.53;4.50;;;;;;;9.58;59.39;94045.69;5016308;28;20316;-72
2023/03/27 01:56:31;;;;;;;10.93;4.30;;;;;;;9.61;58.37;94042.66;5007833;28;20257;-70
2023/03/27 01:59:12;;;;;;;13.00;5.20;;;;;;;9.69;58.36;94044.19;5015481;28;20280;-71
2023/03/27 02:01:39;;;;;;;11.57;4.70;;;;;;;9.42;60.06;94022.72;5011967;28;20280;-71
2023/03/27 02:04:06;;;;;;;12.17;5.10;;;;;;;9.04;60.02;94025.44;5007661;28;20229;-71
2023/03/27 02:06:40;;;;;;;13.60;5.53;;;;;;;9.36;60.26;94036.66;5020619;28;20708;-70
2023/03/27 02:09:22;;;;;;;14.60;6.07;;;;;;;9.45;59.29;94038.78;5013505;28;20265;-69
2023/03/27 02:12:10;;;;;;;14.63;6.50;;;;;;;9.66;58.57;94044.63;5047492;28;20738;-71
2023/03/27 02:14:38;;;;;;;14.33;7.00;;;;;;;9.63;59.35;94030.16;5028845;28;20313;-71
2023/03/27 02:17:08;;;;;;;14.83;6.43;;;;;;;9.51;59.63;94016.22;5014984;28;20300;-71
2023/03/27 02:19:46;;;;;;;15.00;6.97;;;;;;;9.61;60.55;94032.19;5005975;28;20225;-71
2023/03/27 02:22:13;;;;;;;13.33;7.00;;;;;;;9.35;61.13;94019.38;5004059;28;20241;-71
2023/03/27 02:24:39;;;;;;;17.90;7.30;;;;;;;9.16;60.22;94008.09;5015043;28;20230;-71
2023/03/27 02:27:11;;;;;;;16.23;7.20;;;;;;;9.22;60.46;94004.63;5022592;28;20229;-71
2023/03/27 02:29:52;;;;;;;18.67;7.77;;;;;;;9.24;59.42;93993.97;5014944;28;20311;-71
2023/03/27 02:32:20;;;;;;;18.97;8.13;;;;;;;9.14;62.09;94007.50;5008467;28;20234;-71
2023/03/27 02:35:07;;;;;;;16.73;7.50;;;;;;;9.33;61.06;94000.53;5032486;28;20234;-71
2023/03/27 02:37:59;;;;;;;20.13;8.03;;;;;;;9.24;60.49;93978.31;5016583;28;20228;-70
2023/03/27 02:40:53;;;;;;;22.77;8.70;;;;;;;9.00;61.71;93982.53;5011115;28;20229;-71
2023/03/27 02:43:39;;;;;;;19.73;8.03;;;;;;;9.32;61.28;93978.81;5029806;28;20269;-72
2023/03/27 02:46:39;;;;;;;19.13;8.13;;;;;;;8.98;61.04;93962.88;5007900;28;20237;-72
2023/03/27 02:49:08;;;;;;;19.50;8.33;;;;;;;8.84;61.30;93950.94;5037565;28;20242;-71
2023/03/27 02:51:42;;;;;;;21.13;8.53;;;;;;;8.82;62.06;93951.13;5035761;28;20256;-71
2023/03/27 02:54:20;;;;;;;19.83;8.53;;;;;;;8.56;64.26;93938.28;5017131;28;21082;-71
2023/03/27 02:56:47;;;;;;;20.63;8.40;;;;;;;8.57;64.58;93934.69;5010374;28;20234;-71
2023/03/27 02:59:17;;;;;;;20.80;8.60;;;;;;;8.66;63.58;93930.78;5010533;28;20226;-72
2023/03/27 03:01:44;;;;;;;17.63;8.53;;;;;;;8.72;63.15;93932.53;5012425;28;20255;-71
2023/03/27 03:04:11;;;;;;;22.27;8.63;;;;;;;8.91;64.71;93944.63;5015397;28;20321;-71
2023/03/27 03:06:41;;;;;;;20.37;8.97;;;;;;;8.81;64.49;93942.50;5033000;28;20325;-71
2023/03/27 03:09:06;;;;;;;24.10;8.87;;;;;;;8.50;65.57;93944.34;5012098;28;20263;-72
2023/03/27 03:11:36;;;;;;;20.00;8.43;;;;;;;8.38;66.60;93930.41;5011384;28;20613;-71
2023/03/27 03:14:02;;;;;;;25.03;9.20;;;;;;;7.90;68.92;93894.34;5021116;28;20234;-72
2023/03/27 03:16:28;;;;;;;21.10;8.80;;;;;;;8.02;69.37;93900.47;5015987;28;20240;-71
2023/03/27 03:18:53;;;;;;;20.77;9.00;;;;;;;8.24;68.92;93910.59;5010919;28;20241;-70
2023/03/27 03:21:20;;;;;;;20.07;9.47;;;;;;;8.44;66.96;93908.69;5008797;28;20583;-71
2023/03/27 03:23:45;;;;;;;22.47;9.30;;;;;;;8.38;66.86;93893.91;5025318;28;20230;-70
2023/03/27 03:26:12;;;;;;;21.67;8.57;;;;;;;8.37;66.44;93895.69;5032004;28;20236;-71
2023/03/27 03:28:37;;;;;;;19.70;8.77;;;;;;;8.03;66.73;93886.44;5016483;28;20222;-71
2023/03/27 03:31:03;;;;;;;20.47;8.73;;;;;;;8.27;65.42;93887.53;5036613;28;20234;-71
2023/03/27 03:33:29;;;;;;;18.20;8.13;;;;;;;8.47;66.62;93893.44;5034574;28;20226;-71
2023/03/27 03:35:57;;;;;;;19.80;8.03;;;;;;;8.73;64.00;93892.41;5005286;28;20232;-71
2023/03/27 03:38:26;;;;;;;19.30;8.30;;;;;;;8.78;63.91;93882.16;5012360;28;20238;-72
2023/03/27 03:40:56;;;;;;;22.30;8.83;;;;;;;8.66;63.60;93876.03;5017702;28;20248;-72
2023/03/27 03:43:23;;;;;;;22.80;8.43;;;;;;;8.41;64.80;93872.59;5017603;28;20232;-72
2023/03/27 03:45:49;;;;;;;19.27;8.10;;;;;;;8.19;65.18;93881.75;4997997;28;20307;-72
2023/03/27 03:48:15;;;;;;;20.13;8.33;;;;;;;8.44;64.65;93875.59;5033637;28;20226;-72
2023/03/27 03:50:41;;;;;;;17.57;7.47;;;;;;;8.34;65.89;93875.25;5030948;28;20264;-72
2023/03/27 03:53:07;;;;;;;19.83;8.20;;;;;;;8.62;63.99;93893.91;5010342;28;20331;-72
2023/03/27 03:55:32;;;;;;;19.00;8.60;;;;;;;8.50;63.42;93877.34;5030164;28;20230;-72
2023/03/27 03:57:58;;;;;;;18.57;8.30;;;;;;;8.76;63.58;93878.97;5034746;28;20240;-71
2023/03/27 04:00:24;;;;;;;21.70;8.40;;;;;;;8.58;64.04;93884.09;5015202;28;20257;-72
2023/03/27 04:02:50;;;;;;;20.53;8.37;;;;;;;8.61;64.47;93891.50;5026152;28;20925;-72
2023/03/27 04:05:16;;;;;;;22.53;8.73;;;;;;;8.56;63.74;93870.47;5019380;28;20615;-72
2023/03/27 04:07:41;;;;;;;24.47;9.43;;;;;;;8.58;63.77;93882.31;5021833;28;20238;-71
2023/03/27 04:10:07;;;;;;;21.27;8.17;;;;;;;8.52;64.85;93869.31;5001405;28;20234;-71
2023/03/27 04:12:36;;;;;;;20.10;8.77;;;;;;;8.58;65.81;93884.09;5006695;28;20880;-73
2023/03/27 04:15:03;;;;;;;23.67;8.80;;;;;;;8.64;65.23;93886.69;5002032;28;20388;-74
2023/03/27 04:17:32;;;;;;;22.27;9.20;;;;;;;8.47;66.35;93871.75;5015082;28;20291;-73
2023/03/27 04:19:58;;;;;;;22.57;8.93;;;;;;;8.73;66.42;93893.22;5014638;28;20270;-71
2023/03/27 04:22:25;;;;;;;21.37;9.07;;;;;;;8.78;63.90;93879.53;5032251;28;20230;-71
2023/03/27 04:24:52;;;;;;;21.37;8.80;;;;;;;8.78;64.82;93856.06;5002155;28;20286;-72
2023/03/27 04:27:19;;;;;;;26.97;9.00;;;;;;;8.76;66.33;93878.97;5032906;28;20629;-71
2023/03/27 04:29:46;;;;;;;23.97;8.90;;;;;;;8.91;63.99;93881.25;5041567;28;20233;-71
2023/03/27 04:32:17;;;;;;;20.90;8.80;;;;;;;8.87;63.58;93877.44;5034192;28;20290;-72
2023/03/27 04:34:43;;;;;;;22.77;8.70;;;;;;;8.71;65.77;93870.97;5016461;28;20232;-71
2023/03/27 04:37:09;;;;;;;27.90;9.13;;;;;;;8.81;65.96;93879.91;5014798;28;20756;-70
2023/03/27 04:39:40;;;;;;;18.60;8.60;;;;;;;8.71;64.94;93866.56;5015999;28;20229;-71
2023/03/27 04:42:05;;;;;;;21.13;8.87;;;;;;;8.75;65.11;93862.50;5026344;28;20230;-71
2023/03/27 04:44:31;;;;;;;23.80;8.70;;;;;;;8.61;68.70;93863.63;5033674;28;20740;-71
2023/03/27 04:47:00;;;;;;;20.60;8.57;;;;;;;8.79;66.05;93857.63;5008603;28;20225;-72
2023/03/27 04:49:49;;;;;;;21.90;8.90;;;;;;;8.90;65.05;93869.19;5041124;28;20397;-71
2023/03/27 04:52:15;;;;;;;24.80;8.57;;;;;;;8.92;65.40;93854.13;5029344;28;20240;-71
2023/03/27 04:54:41;;;;;;;21.97;9.20;;;;;;;8.99;66.13;93863.50;5009096;28;20238;-71
2023/03/27 04:57:06;;;;;;;20.40;8.13;;;;;;;9.34;64.65;93867.13;5015325;28;20767;-72
2023/03/27 04:59:32;;;;;;;23.77;9.07;;;;;;;9.35;63.23;93854.88;5015075;28;20230;-72
2023/03/27 05:02:02;;;;;;;27.30;8.90;;;;;;;9.24;65.70;93838.13;5017585;28;20284;-71
2023/03/27 05:04:29;;;;;;;19.57;8.70;;;;;;;9.62;64.23;93844.94;5017453;28;20687;-71
2023/03/27 05:06:55;;;;;;;26.80;8.93;;;;;;;9.43;64.07;93799.75;5002307;28;20242;-71
2023/03/27 05:09:20;;;;;;;24.33;9.17;;;;;;;9.82;62.32;93829.78;5018825;28;20237;-72
2023/03/27 05:11:48;;;;;;;22.20;9.00;;;;;;;9.92;60.01;93812.56;5033646;28;20230;-71
2023/03/27 05:14:21;;;;;;;23.40;8.70;;;;;;;10.02;60.45;93822.47;5012596;28;20332;-72
2023/03/27 05:16:49;;;;;;;24.70;9.30;;;;;;;10.23;60.66;93836.88;5023164;28;20292;-71
2023/03/27 05:19:15;;;;;;;23.37;9.10;;;;;;;10.10;59.11;93806.50;5019292;28;20242;-72
2023/03/27 05:21:40;;;;;;;21.27;9.40;;;;;;;10.18;60.82;93806.19;5014210;28;20291;-71
2023/03/27 05:24:06;;;;;;;23.50;9.80;;;;;;;10.86;56.72;93816.16;5040188;28;20303;-71
2023/03/27 05:26:32;;;;;;;29.57;9.70;;;;;;;10.22;59.35;93746.41;5032041;28;20226;-72
2023/03/27 05:28:58;;;;;;;24.37;9.40;;;;;;;10.39;58.25;93794.41;5001510;28;20245;-71
2023/03/27 05:31:27;;;;;;;26.27;10.43;;;;;;;10.51;56.22;93759.38;5023925;28;20753;-72
2023/03/27 05:33:53;;;;;;;24.73;9.60;;;;;;;10.52;56.44;93766.22;5015130;28;20738;-71
2023/03/27 05:36:18;;;;;;;22.27;9.30;;;;;;;10.62;54.25;93753.38;4999041;28;20263;-71
2023/03/27 05:38:44;;;;;;;20.07;8.90;;;;;;;10.92;53.70;93755.03;5014087;28;20257;-72
2023/03/27 05:41:09;;;;;;;22.43;8.83;;;;;;;11.17;54.73;93752.94;5032203;28;20244;-70
2023/03/27 05:43:35;;;;;;;27.23;9.00;;;;;;;10.82;55.35;93700.66;5000554;28;20777;-72
2023/03/27 05:46:01;;;;;;;20.63;8.50;;;;;;;11.03;55.37;93721.00;5000039;28;20226;-72
2023/03/27 05:48:27;;;;;;;27.83;9.07;;;;;;;11.04;54.31;93719.16;5030677;28;20325;-70
2023/03/27 05:50:52;;;;;;;22.57;8.93;;;;;;;11.03;54.91;93684.34;5016535;28;20233;-71
2023/03/27 05:53:18;;;;;;;22.80;8.50;;;;;;;11.20;51.98;93676.56;5027797;28;21075;-69
2023/03/27 05:55:44;;;;;;;21.50;8.37;;;;;;;11.55;52.28;93669.31;4998886;28;20229;-71
2023/03/27 05:58:12;;;;;;;23.07;8.13;;;;;;;11.68;51.13;93655.94;5001373;28;20233;-71
2023/03/27 06:00:40;;;;;;;23.00;8.40;;;;;;;11.75;50.55;93656.56;5008095;28;20245;-70
2023/03/27 06:03:06;;;;;;;22.70;7.90;;;;;;;11.88;49.84;93648.41;5009235;28;20239;-70
2023/03/27 06:05:31;;;;;;;18.43;6.23;;;;;;;11.81;49.21;93615.53;5008886;28;20915;-71
2023/03/27 06:07:57;;;;;;;18.23;6.00;;;;;;;12.07;49.07;93599.13;5010858;28;20655;-70
2023/03/27 06:10:23;;;;;;;11.60;5.30;;;;;;;12.09;49.90;93602.31;4998985;28;20293;-71
2023/03/27 06:12:49;;;;;;;12.37;5.47;;;;;;;12.20;48.93;93598.00;4989958;28;20704;-69
2023/03/27 06:15:25;;;;;;;15.53;6.53;;;;;;;12.26;48.52;93592.59;4980025;28;22853;-73
2023/03/27 06:17:51;;;;;;;15.93;6.70;;;;;;;12.41;48.58;93592.81;4992551;28;21026;-71
2023/03/27 06:20:18;;;;;;;17.93;6.20;;;;;;;12.48;47.49;93609.16;5033090;28;20233;-72
2023/03/27 06:22:45;;;;;;;11.60;5.43;;;;;;;12.41;46.84;93615.63;5031851;28;20270;-70
2023/03/27 06:25:11;;;;;;;13.00;5.00;;;;;;;12.16;49.08;93590.63;5030555;28;20718;-72
2023/03/27 06:27:36;;;;;;;11.10;4.33;;;;;;;12.20;48.90;93562.09;5003074;28;20269;-71
2023/03/27 06:30:03;;;;;;;9.97;3.67;;;;;;;12.24;48.61;93589.41;5031281;28;20269;-70
2023/03/27 06:32:29;;;;;;;12.43;4.63;;;;;;;12.22;47.20;93595.94;5023130;28;20230;-71
2023/03/27 06:34:54;;;;;;;14.67;5.17;;;;;;;12.39;46.91;93605.38;5032482;28;20729;-73
2023/03/27 06:37:20;;;;;;;12.07;3.70;;;;;;;12.14;47.42;93621.53;5016254;28;20237;-71
2023/03/27 06:39:49;;;;;;;8.07;3.67;;;;;;;12.19;47.07;93618.19;5011520;28;20639;-71
2023/03/27 06:42:14;;;;;;;9.80;3.63;;;;;;;12.24;49.10;93610.41;5031657;28;20252;-72
2023/03/27 06:44:40;;;;;;;8.47;3.20;;;;;;;12.27;49.12;93617.00;5030577;28;20412;-72
2023/03/27 06:47:05;;;;;;;9.97;3.00;;;;;;;12.41;48.72;93618.25;5019002;28;20233;-72
2023/03/27 06:49:31;;;;;;;9.07;2.97;;;;;;;12.54;48.94;93620.50;5031912;28;20222;-71
2023/03/27 06:51:56;;;;;;;5.97;3.03;;;;;;;12.29;48.77;93613.09;5019279;28;20741;-71
2023/03/27 06:54:23;;;;;;;8.10;2.97;;;;;;;12.41;48.81;93620.88;5026383;28;20243;-74
2023/03/27 06:56:48;;;;;;;7.90;2.90;;;;;;;12.43;49.31;93606.47;5002436;28;20581;-71
2023/03/27 06:59:13;;;;;;;5.87;2.90;;;;;;;12.66;48.32;93614.09;5018573;28;20247;-71
2023/03/27 07:01:39;;;;;;;7.47;2.80;;;;;;;12.84;47.24;93620.88;5026664;28;20234;-72
2023/03/27 07:04:05;;;;;;;9.40;2.90;;;;;;;13.42;46.24;93626.25;5017459;28;20226;-72
2023/03/27 07:06:31;;;;;;;4.87;2.70;;;;;;;13.61;46.43;93620.66;5035594;28;20317;-72
2023/03/27 07:08:56;;;;;;;5.53;2.80;;;;;;;13.82;45.40;93628.47;5021445;28;20343;-72
2023/03/27 07:11:22;;;;;;;5.60;3.10;;;;;;;14.19;44.00;93625.84;5035258;28;20931;-72
2023/03/27 07:13:47;;;;;;;12.03;3.67;;;;;;;14.67;43.14;93619.59;5019759;28;20230;-72
2023/03/27 07:16:13;;;;;;;5.70;3.00;;;;;;;14.67;42.46;93622.22;5037079;28;20229;-72
2023/03/27 07:18:40;;;;;;;6.73;2.93;;;;;;;15.21;42.54;93617.44;5033761;28;20799;-72
2023/03/27 07:21:07;;;;;;;6.07;3.20;;;;;;;15.36;40.90;93612.19;5010977;28;20785;-72
2023/03/27 07:23:32;;;;;;;6.57;2.90;;;;;;;16.24;40.95;93618.09;5023074;28;20253;-73
2023/03/27 07:25:58;;;;;;;9.37;3.20;;;;;;;16.45;40.21;93601.94;5022861;28;20225;-71
2023/03/27 07:28:23;;;;;;;5.83;3.20;;;;;;;15.50;43.79;93613.28;5035168;28;20248;-72
2023/03/27 07:30:49;;;;;;;5.23;2.90;;;;;;;15.29;45.05;93622.19;5010886;28;20234;-72
2023/03/27 07:33:15;;;;;;;7.80;3.30;;;;;;;14.83;44.75;93637.84;5025441;28;20241;-72
2023/03/27 07:35:44;;;;;;;6.13;3.23;;;;;;;14.53;46.38;93629.78;5020198;28;20625;-72
2023/03/27 07:38:10;;;;;;;5.97;2.93;;;;;;;14.58;46.75;93621.91;5020072;28;20238;-72
2023/03/27 07:40:35;;;;;;;5.47;3.30;;;;;;;14.65;46.66;93622.47;5021817;28;20229;-71
2023/03/27 07:43:05;;;;;;;5.70;3.03;;;;;;;14.78;45.82;93624.63;5017350;28;20233;-72
2023/03/27 07:45:30;;;;;;;12.67;3.30;;;;;;;14.51;45.22;93602.94;5034348;28;20241;-72
2023/03/27 07:48:03;;;;;;;10.50;3.33;;;;;;;14.37;45.45;93609.69;5019493;28;20238;-72
2023/03/27 07:50:29;;;;;;;7.00;3.37;;;;;;;14.34;46.16;93612.81;5018289;28;20367;-72
2023/03/27 07:52:54;;;;;;;6.90;3.50;;;;;;;14.16;46.01;93607.97;5033429;28;20271;-72
2023/03/27 07:55:21;;;;;;;6.77;3.40;;;;;;;14.05;46.73;93611.53;5032159;28;20322;-72
2023/03/27 07:57:47;;;;;;;5.13;3.50;;;;;;;13.91;47.85;93603.31;5018165;28;20265;-72
2023/03/27 08:00:16;;;;;;;5.73;3.07;;;;;;;14.22;48.64;93606.13;5032670;28;20265;-72
2023/03/27 08:02:42;;;;;;;6.20;3.50;;;;;;;13.81;48.76;93599.78;5015518;28;20229;-71
2023/03/27 08:05:08;;;;;;;8.87;3.87;;;;;;;13.84;49.55;93601.91;5010294;28;20291;-72
2023/03/27 08:07:34;;;;;;;9.03;4.10;;;;;;;13.82;50.38;93585.59;5022049;28;20225;-71
2023/03/27 08:10:00;;;;;;;7.07;4.10;;;;;;;13.95;51.04;93574.63;5016460;28;20242;-71
2023/03/27 08:12:26;;;;;;;7.30;4.07;;;;;;;14.01;49.95;93584.16;5035320;28;20264;-72
2023/03/27 08:14:53;;;;;;;8.93;4.20;;;;;;;13.86;49.52;93576.97;5022588;28;20748;-71
2023/03/27 08:17:19;;;;;;;7.00;4.00;;;;;;;13.99;50.59;93571.28;5031888;28;21069;-71
2023/03/27 08:19:45;;;;;;;7.43;3.70;;;;;;;13.81;50.20;93584.00;5009747;28;20239;-71
2023/03/27 08:22:11;;;;;;;11.03;3.97;;;;;;;13.92;50.43;93575.16;5032041;28;20233;-72
2023/03/27 08:24:36;;;;;;;13.03;4.70;;;;;;;14.13;53.36;93555.84;4998677;28;20234;-71
2023/03/27 08:27:02;;;;;;;7.60;4.37;;;;;;;14.07;51.55;93549.75;4993483;28;20234;-71
2023/03/27 08:29:28;;;;;;;13.73;7.70;;;;;;;14.02;51.45;93556.78;5005755;28;20233;-72
2023/03/27 08:31:53;;;;;;;7.00;4.07;;;;;;;14.22;50.64;93550.88;5013703;28;20234;-72
2023/03/27 08:34:19;;;;;;;12.10;5.20;;;;;;;14.46;51.69;93560.78;5000235;28;20225;-72
2023/03/27 08:36:44;;;;;;;9.17;4.40;;;;;;;14.16;51.26;93555.34;4997004;28;20233;-71
2023/03/27 08:39:10;;;;;;;8.23;4.00;;;;;;;13.99;53.07;93544.97;5010915;28;20234;-71
2023/03/27 08:41:41;;;;;;;6.27;3.90;;;;;;;13.78;52.83;93563.50;5013444;28;20218;-70
2023/03/27 08:44:12;;;;;;;6.73;3.83;;;;;;;13.79;53.50;93570.31;5006669;28;20230;-72
2023/03/27 08:46:49;;;;;;;7.10;3.93;;;;;;;13.82;53.18;93582.97;5021233;28;20258;-70
2023/03/27 08:49:20;;;;;;;7.53;4.50;;;;;;;13.91;53.60;93581.47;5013880;28;20242;-71
2023/03/27 08:51:47;;;;;;;10.63;4.30;;;;;;;14.11;53.83;93607.91;5032720;28;20238;-72
2023/03/27 08:54:18;;;;;;;11.00;4.63;;;;;;;14.18;53.14;93595.34;5033600;28;20241;-71
2023/03/27 08:56:44;;;;;;;10.63;3.73;;;;;;;14.18;48.50;93561.94;5034711;28;20273;-71
2023/03/27 08:59:14;;;;;;;7.43;2.97;;;;;;;14.35;47.08;93539.94;5034144;28;20672;-71
2023/03/27 09:01:44;;;;;;;7.73;3.10;;;;;;;14.47;48.08;93522.09;5018039;28;20325;-72
2023/03/27 09:04:16;;;;;;;6.63;2.90;;;;;;;14.62;51.10;93501.06;5032326;28;20238;-72
2023/03/27 09:07:10;;;;;;;23.13;9.40;;;;;;;14.85;47.38;93501.38;5034355;28;20232;-71
2023/03/27 09:09:52;;;;;;;18.50;7.80;;;;;;;14.86;46.89;93507.44;5027495;28;20410;-72
2023/03/27 09:12:47;;;;;;;9.67;4.77;;;;;;;14.87;47.44;93495.06;5033617;28;20257;-73
2023/03/27 09:15:15;;;;;;;20.20;8.63;;;;;;;14.82;45.02;93501.94;5031468;28;20894;-71
2023/03/27 09:17:47;;;;;;;26.77;11.20;;;;;;;14.89;45.76;93506.94;5022846;28;20234;-71
2023/03/27 09:20:20;;;;;;;21.63;8.97;;;;;;;14.93;45.41;93509.84;5007796;28;20234;-70
2023/03/27 09:23:05;;;;;;;17.63;7.50;;;;;;;14.95;44.81;93524.31;5024739;28;20288;-71
2023/03/27 09:25:34;;;;;;;23.23;5.80;;;;;;;14.86;44.74;93533.78;5024907;28;20241;-71
2023/03/27 09:28:00;;;;;;;12.40;3.67;;;;;;;14.85;44.87;93561.97;5018355;28;20240;-70
2023/03/27 09:30:27;;;;;;;4.87;2.87;;;;;;;14.70;46.29;93583.00;5008427;28;20226;-71
2023/03/27 09:33:04;;;;;;;6.80;2.90;;;;;;;14.46;47.69;93581.03;5016272;28;20248;-71
2023/03/27 09:35:30;;;;;;;6.93;2.80;;;;;;;14.49;48.14;93580.53;5031749;28;20249;-70
2023/03/27 09:38:02;;;;;;;3.60;2.00;;;;;;;14.50;46.60;93561.84;5018546;28;20287;-71
2023/03/27 09:40:57;;;;;;;5.30;2.23;;;;;;;14.48;47.59;93553.41;5020617;28;20567;-70
2023/03/27 09:43:46;;;;;;;6.80;2.40;;;;;;;14.57;47.43;93538.69;5011093;28;20229;-71
2023/03/27 09:46:12;;;;;;;3.20;2.30;;;;;;;14.61;47.34;93537.16;5033682;28;20245;-72
2023/03/27 09:48:45;;;;;;;3.80;2.50;;;;;;;14.73;47.20;93544.81;5023929;28;20230;-71
2023/03/27 09:51:43;;;;;;;5.83;2.90;;;;;;;14.74;47.60;93549.03;5024192;28;20232;-71
2023/03/27 09:54:13;;;;;;;5.87;3.40;;;;;;;14.77;46.76;93524.81;5033104;28;20237;-71
2023/03/27 09:57:02;;;;;;;6.47;2.73;;;;;;;14.82;47.03;93524.84;5000145;28;20409;-71
2023/03/27 09:59:36;;;;;;;5.43;2.30;;;;;;;14.83;48.80;93514.03;5030250;28;20521;-70
2023/03/27 10:02:29;;;;;;;5.67;2.93;;;;;;;14.71;49.77;93510.84;5014687;28;20234;-72
2023/03/27 10:05:11;;;;;;;6.33;2.80;;;;;;;14.79;48.54;93523.50;5026542;28;20461;-71
2023/03/27 10:07:38;;;;;;;6.07;3.40;;;;;;;14.81;50.04;93518.78;5030019;28;20312;-72
2023/03/27 10:10:16;;;;;;;6.07;3.00;;;;;;;14.82;48.50;93532.75;5005451;28;20222;-70
2023/03/27 10:12:42;;;;;;;6.67;3.20;;;;;;;14.80;48.95;93534.84;5034520;28;20245;-70
2023/03/27 10:15:34;;;;;;;8.30;5.13;;;;;;;14.78;49.51;93547.47;5014176;28;20226;-70
2023/03/27 10:18:03;;;;;;;7.33;3.60;;;;;;;14.80;49.63;93553.28;5031480;28;20238;-71
2023/03/27 10:20:28;;;;;;;8.27;3.80;;;;;;;14.87;49.64;93547.75;5013269;28;20230;-70
2023/03/27 10:22:55;;;;;;;6.47;3.50;;;;;;;14.87;50.22;93555.66;5005898;28;20328;-71
2023/03/27 10:25:28;;;;;;;8.67;3.70;;;;;;;14.78;50.73;93548.25;4997190;28;20230;-70
2023/03/27 10:27:54;;;;;;;5.27;2.80;;;;;;;14.67;50.43;93551.09;5004997;28;20232;-70
2023/03/27 10:30:29;;;;;;;5.20;2.80;;;;;;;14.58;51.19;93532.41;5005045;28;20233;-70
2023/03/27 10:32:55;;;;;;;4.87;2.77;;;;;;;14.53;52.76;93527.09;5031358;28;20251;-72
2023/03/27 10:35:42;;;;;;;5.93;2.73;;;;;;;14.41;53.93;93520.47;5015483;28;20295;-71
2023/03/27 10:38:13;;;;;;;6.60;3.10;;;;;;;14.56;52.43;93528.44;5000548;28;20240;-71
2023/03/27 10:40:38;;;;;;;5.67;3.30;;;;;;;14.73;53.18;93524.56;5014916;28;20699;-70
2023/03/27 10:43:08;;;;;;;11.20;5.67;;;;;;;14.83;52.58;93514.03;5020928;28;20233;-71
2023/03/27 10:45:45;;;;;;;11.60;6.20;;;;;;;14.85;51.11;93500.63;5017848;28;20237;-71
2023/03/27 10:48:11;;;;;;;5.97;3.00;;;;;;;14.82;49.78;93495.84;5000301;28;20240;-72
2023/03/27 10:50:44;;;;;;;4.33;2.70;;;;;;;14.79;50.36;93475.31;5016698;28;20225;-71
2023/03/27 10:53:16;;;;;;;6.50;2.63;;;;;;;14.74;52.44;93465.56;5012369;28;20233;-72
2023/03/27 10:56:10;;;;;;;4.37;2.80;;;;;;;14.71;49.28;93452.91;5011644;28;20695;-72
2023/03/27 10:58:42;;;;;;;5.10;3.03;;;;;;;14.73;49.85;93421.84;5007548;28;20233;-72
2023/03/27 11:01:25;;;;;;;7.53;3.50;;;;;;;14.91;52.72;93435.53;5030905;28;20256;-72
2023/03/27 11:04:10;;;;;;;6.87;3.20;;;;;;;15.09;50.93;93442.94;5025426;28;20257;-72
2023/03/27 11:06:38;;;;;;;5.43;3.10;;;;;;;15.10;48.49;93452.41;5022777;28;20704;-73
2023/03/27 11:09:22;;;;;;;7.60;3.13;;;;;;;15.03;50.68;93450.06;5024277;28;20221;-73
2023/03/27 11:11:51;;;;;;;8.13;3.60;;;;;;;14.59;52.45;93447.06;5010902;28;20308;-74
2023/03/27 11:14:27;;;;;;;9.47;3.73;;;;;;;14.36;54.73;93452.81;5026525;28;20239;-72
2023/03/27 11:16:57;;;;;;;8.57;3.57;;;;;;;14.42;55.83;93467.59;5029877;28;20988;-72
2023/03/27 11:19:30;;;;;;;4.17;2.70;;;;;;;14.25;57.49;93480.13;5000324;28;20225;-72
2023/03/27 11:22:03;;;;;;;7.80;3.50;;;;;;;14.16;58.11;93495.59;5013007;28;20315;-72
2023/03/27 11:24:41;;;;;;;7.13;3.30;;;;;;;13.98;59.31;93495.22;4996085;28;20847;-73
2023/03/27 11:27:12;;;;;;;4.07;2.60;;;;;;;13.66;61.21;93497.16;5015934;28;20277;-73
2023/03/27 11:29:49;;;;;;;6.40;2.80;;;;;;;13.57;61.92;93514.41;5010714;28;20237;-73
2023/03/27 11:32:28;;;;;;;5.97;2.73;;;;;;;13.43;62.56;93522.75;5012281;28;20241;-72
2023/03/27 11:34:59;;;;;;;5.10;2.90;;;;;;;13.23;64.25;93519.94;5017062;28;20702;-73
2023/03/27 11:37:30;;;;;;;5.03;2.60;;;;;;;13.11;65.50;93540.31;5001785;28;20759;-72
2023/03/27 11:40:19;;;;;;;7.27;2.83;;;;;;;12.98;66.20;93532.81;5028100;28;20324;-72
2023/03/27 11:42:45;;;;;;;7.17;2.50;;;;;;;12.88;67.18;93524.03;5016203;28;20257;-71
2023/03/27 11:45:12;;;;;;;6.60;2.50;;;;;;;12.78;67.91;93524.72;4998547;28;20233;-71
2023/03/27 11:48:13;;;;;;;3.33;2.30;;;;;;;12.69;68.58;93544.56;5022401;28;20230;-72